Time;durP1;ratioP1;P1;durP2;ratioP2;P2;SDS_P1;SDS_P2;PMS_P1;PMS_P2;Temp;Humidity;BMP_temperature;BMP_pressure;BME280_temperature;BME280_humidity;BME280_pressure;Samples;Min_cycle;Max_cycle;Signal;HPM_P1;HPM_P2
2022/04/06 00:00:28;;;;;;;1.77;1.20;;;;;;;18.65;43.87;100253.25;5144032;27;20575;-59
2022/04/06 00:02:53;;;;;;;1.58;1.17;;;;;;;18.65;43.99;100252.41;5144799;27;20056;-61
2022/04/06 00:05:18;;;;;;;1.95;1.20;;;;;;;18.64;43.87;100251.56;5143243;27;20031;-61
2022/04/06 00:07:44;;;;;;;1.60;1.10;;;;;;;18.63;43.71;100249.06;5144650;27;20026;-61
2022/04/06 00:10:11;;;;;;;3.08;1.23;;;;;;;18.62;44.04;100244.69;5144044;27;20511;-61
2022/04/06 00:12:37;;;;;;;1.30;1.00;;;;;;;18.63;43.85;100240.97;5144688;27;20388;-61
2022/04/06 00:15:04;;;;;;;1.85;1.10;;;;;;;18.62;44.10;100240.16;5144673;27;20042;-61
2022/04/06 00:17:29;;;;;;;3.00;1.40;;;;;;;18.61;43.49;100232.25;5144197;27;20023;-61
2022/04/06 00:19:54;;;;;;;1.60;1.20;;;;;;;18.62;43.75;100239.31;5144462;27;20038;-61
2022/04/06 00:22:20;;;;;;;2.67;1.48;;;;;;;18.60;43.92;100230.56;5143666;27;20070;-62
2022/04/06 00:24:45;;;;;;;1.83;1.25;;;;;;;18.57;43.95;100236.34;5144906;27;20665;-61
2022/04/06 00:27:11;;;;;;;1.73;1.10;;;;;;;18.59;43.76;100227.03;5143901;27;20030;-61
2022/04/06 00:29:36;;;;;;;2.15;1.20;;;;;;;18.58;44.00;100235.31;5144872;27;20015;-60
2022/04/06 00:32:02;;;;;;;2.95;1.35;;;;;;;18.56;43.92;100223.88;5144113;28;20387;-61
2022/04/06 00:37:11;;;;;;;2.33;1.45;;;;;;;18.56;43.78;100222.00;5144374;28;20111;-62
2022/04/06 00:39:36;;;;;;;2.35;1.20;;;;;;;18.57;43.92;100220.19;5144350;28;20031;-61
2022/04/06 00:42:02;;;;;;;3.78;1.48;;;;;;;18.55;43.90;100216.81;5125209;28;20065;-61
2022/04/06 00:44:28;;;;;;;2.38;1.40;;;;;;;18.55;43.72;100217.66;5144464;28;20031;-61
2022/04/06 00:46:53;;;;;;;2.65;1.23;;;;;;;18.54;43.79;100215.16;5143447;28;20027;-61
2022/04/06 00:49:19;;;;;;;2.85;1.58;;;;;;;18.55;43.92;100214.13;5144486;27;20431;-61
2022/04/06 00:51:46;;;;;;;2.38;1.25;;;;;;;18.54;43.67;100207.91;5144764;27;20079;-61
2022/04/06 00:54:16;;;;;;;2.50;1.75;;;;;;;18.54;43.71;100210.59;5148453;27;20031;-61
2022/04/06 00:56:43;;;;;;;2.30;1.30;;;;;;;18.53;43.94;100203.56;5147649;27;20023;-60
2022/04/06 00:59:09;;;;;;;2.58;1.30;;;;;;;18.52;43.84;100207.28;5148243;27;20032;-61
2022/04/06 01:01:34;;;;;;;2.08;1.30;;;;;;;18.53;43.84;100205.41;5147646;27;20116;-61
2022/04/06 01:04:00;;;;;;;2.08;1.30;;;;;;;18.51;43.70;100202.88;5148216;27;20023;-61
2022/04/06 01:06:25;;;;;;;2.03;1.45;;;;;;;18.51;43.64;100199.38;5132804;27;20020;-61
2022/04/06 01:08:52;;;;;;;1.98;1.40;;;;;;;18.51;43.91;100207.44;5127363;28;20049;-61
2022/04/06 01:11:18;;;;;;;3.00;1.38;;;;;;;18.49;43.89;100200.38;5127019;28;20024;-60
2022/04/06 01:13:44;;;;;;;3.17;1.30;;;;;;;18.49;44.02;100196.88;5127394;28;20051;-60
2022/04/06 01:16:09;;;;;;;2.08;1.52;;;;;;;18.49;43.65;100200.38;5127209;28;20057;-61
2022/04/06 01:18:36;;;;;;;1.23;1.08;;;;;;;18.48;43.71;100204.09;5127391;28;20031;-60
2022/04/06 01:21:02;;;;;;;2.08;1.50;;;;;;;18.48;43.65;100200.59;5127662;27;20051;-60
2022/04/06 01:23:27;;;;;;;1.58;1.13;;;;;;;18.45;43.60;100200.94;5108829;28;20027;-60
2022/04/06 01:25:52;;;;;;;1.65;1.13;;;;;;;18.47;43.73;100199.72;5126827;28;20028;-61
2022/04/06 01:28:17;;;;;;;3.03;1.48;;;;;;;18.46;43.68;100198.06;5127258;28;20511;-61
2022/04/06 01:30:42;;;;;;;2.05;1.23;;;;;;;18.46;43.72;100194.53;5126116;28;20695;-60
2022/04/06 01:33:08;;;;;;;1.52;1.10;;;;;;;18.45;43.54;100196.38;5127053;28;20412;-60
2022/04/06 01:35:38;;;;;;;1.95;1.55;;;;;;;18.44;43.68;100192.03;5126432;28;20081;-61
2022/04/06 01:38:06;;;;;;;2.20;1.15;;;;;;;18.43;43.61;100184.94;5108232;28;20027;-60
2022/04/06 01:40:33;;;;;;;1.90;1.40;;;;;;;18.42;43.74;100182.47;5126438;28;20023;-61
2022/04/06 01:42:58;;;;;;;1.98;1.20;;;;;;;18.42;43.54;100183.28;5126756;28;20024;-60
2022/04/06 01:45:23;;;;;;;2.88;1.42;;;;;;;18.41;43.55;100181.63;5130599;27;20176;-60
2022/04/06 01:47:48;;;;;;;1.35;1.20;;;;;;;18.41;43.60;100180.78;5147133;27;20023;-60
2022/04/06 01:52:57;;;;;;;1.20;1.00;;;;;;;18.40;43.67;100179.97;5146946;27;20083;-60
2022/04/06 01:55:23;;;;;;;2.13;1.42;;;;;;;18.40;43.52;100171.06;5146704;27;20101;-61
2022/04/06 01:57:49;;;;;;;2.50;1.30;;;;;;;18.39;43.71;100178.28;5147219;27;20043;-60
2022/04/06 02:00:17;;;;;;;1.88;1.08;;;;;;;18.39;43.75;100172.91;5147130;27;20510;-60
2022/04/06 02:02:46;;;;;;;1.65;1.20;;;;;;;18.37;43.59;100169.56;5127644;27;20027;-60
2022/04/06 02:05:12;;;;;;;2.22;1.30;;;;;;;18.37;43.65;100166.84;5146967;27;20083;-59
2022/04/06 02:07:37;;;;;;;1.48;1.17;;;;;;;18.37;43.73;100166.84;5147192;27;20042;-60
2022/04/06 02:10:03;;;;;;;2.47;1.45;;;;;;;18.37;43.51;100160.66;5146291;27;20015;-58
2022/04/06 02:12:29;;;;;;;3.40;1.67;;;;;;;18.37;43.65;100168.72;5128161;27;20068;-61
2022/04/06 02:14:55;;;;;;;1.95;1.15;;;;;;;18.36;43.51;100158.97;5147025;27;20027;-61
2022/04/06 02:17:21;;;;;;;3.03;1.38;;;;;;;18.34;43.49;100161.00;5127837;27;20026;-61
2022/04/06 02:19:46;;;;;;;1.92;1.23;;;;;;;18.36;43.63;100158.97;5127950;27;20057;-60
2022/04/06 02:22:11;;;;;;;2.47;1.40;;;;;;;18.35;43.59;100157.28;5146258;27;20069;-60
2022/04/06 02:24:37;;;;;;;2.83;1.60;;;;;;;18.34;43.42;100156.44;5146615;27;20076;-60
2022/04/06 02:27:06;;;;;;;2.10;1.42;;;;;;;18.35;43.66;100157.28;5145948;27;20031;-61
2022/04/06 02:29:31;;;;;;;2.28;1.40;;;;;;;18.34;43.57;100147.53;5146635;27;20016;-60
2022/04/06 02:31:57;;;;;;;2.70;1.25;;;;;;;18.32;43.71;100147.75;5145887;27;20056;-61
2022/04/06 02:34:22;;;;;;;2.58;1.33;;;;;;;18.33;43.43;100148.56;5146740;27;20019;-60
2022/04/06 02:36:47;;;;;;;2.60;1.48;;;;;;;18.33;43.34;100144.03;5127250;27;20059;-60
2022/04/06 02:39:12;;;;;;;3.50;1.35;;;;;;;18.32;43.60;100138.84;5145777;27;20027;-60
2022/04/06 02:41:38;;;;;;;3.03;1.23;;;;;;;18.31;43.47;100140.69;5145759;27;20029;-61
2022/04/06 02:44:03;;;;;;;2.90;1.42;;;;;;;18.30;43.64;100141.69;5146393;27;20038;-61
2022/04/06 02:46:29;;;;;;;2.63;1.55;;;;;;;18.30;43.40;100136.31;5145631;27;20035;-61
2022/04/06 02:48:54;;;;;;;3.15;1.58;;;;;;;18.29;43.40;100134.66;5146327;27;20023;-60
2022/04/06 02:51:19;;;;;;;2.38;1.20;;;;;;;18.29;43.68;100123.03;5138662;27;20023;-60
2022/04/06 02:53:44;;;;;;;2.70;1.42;;;;;;;18.29;43.64;100129.25;5146170;27;20052;-60
2022/04/06 02:56:10;;;;;;;2.15;1.35;;;;;;;18.30;43.50;100124.72;5145424;27;20027;-60
2022/04/06 02:58:35;;;;;;;2.70;1.23;;;;;;;18.28;43.48;100126.75;5145772;27;20019;-60
2022/04/06 03:01:00;;;;;;;2.60;1.52;;;;;;;18.28;43.31;100124.06;5145299;27;20027;-60
2022/04/06 03:03:25;;;;;;;4.20;1.40;;;;;;;18.27;43.42;100115.16;5146276;27;20075;-60
2022/04/06 03:05:51;;;;;;;1.67;1.30;;;;;;;18.27;43.48;100108.97;5145514;27;20027;-60
2022/04/06 03:08:16;;;;;;;2.35;1.50;;;;;;;18.27;43.32;100120.56;5145918;27;20027;-60
2022/04/06 03:10:41;;;;;;;3.25;1.52;;;;;;;18.26;43.30;100118.03;5145267;27;20027;-61
2022/04/06 03:13:07;;;;;;;1.30;1.20;;;;;;;18.23;43.55;100113.88;5145684;27;20023;-60
2022/04/06 03:15:33;;;;;;;2.30;1.70;;;;;;;18.24;43.45;100107.47;5144638;27;20054;-60
2022/04/06 03:17:58;;;;;;;2.17;1.38;;;;;;;18.24;43.40;100118.22;5145407;27;20021;-60
2022/04/06 03:20:23;;;;;;;3.00;1.67;;;;;;;18.22;43.55;100110.34;5144872;27;20034;-59
2022/04/06 03:22:48;;;;;;;2.47;1.50;;;;;;;18.19;43.47;100099.09;5145444;27;20095;-60
2022/04/06 03:25:13;;;;;;;1.25;1.15;;;;;;;18.22;43.55;100106.78;5145125;27;20078;-60
2022/04/06 03:27:39;;;;;;;1.92;1.35;;;;;;;18.22;43.34;100104.09;5145414;27;20046;-61
2022/04/06 03:30:05;;;;;;;3.22;1.63;;;;;;;18.22;43.20;100101.41;5145191;27;20023;-60
2022/04/06 03:32:31;;;;;;;2.90;1.17;;;;;;;18.19;43.42;100086.47;5144898;27;20039;-60
2022/04/06 03:34:56;;;;;;;2.63;1.48;;;;;;;18.19;43.44;100077.59;5145030;27;20038;-61
2022/04/06 03:37:21;;;;;;;4.30;1.50;;;;;;;18.20;43.50;100085.47;5145282;27;20047;-60
2022/04/06 03:39:47;;;;;;;4.80;1.92;;;;;;;18.21;43.27;100086.28;5145123;27;20042;-60
2022/04/06 03:42:12;;;;;;;2.58;1.70;;;;;;;18.19;43.37;100074.88;5144675;27;20039;-61
2022/04/06 03:44:37;;;;;;;2.30;1.50;;;;;;;18.18;43.49;100079.44;5126945;27;20027;-60
2022/04/06 03:47:03;;;;;;;2.53;1.77;;;;;;;18.18;43.56;100082.13;5144492;27;20027;-60
2022/04/06 03:49:28;;;;;;;3.20;1.80;;;;;;;18.18;43.29;100079.44;5145218;27;20023;-60
2022/04/06 03:51:53;;;;;;;3.20;1.60;;;;;;;18.14;43.26;100070.06;5144567;27;20023;-60
2022/04/06 03:54:18;;;;;;;3.55;1.42;;;;;;;18.15;43.42;100081.66;5145082;27;20031;-60
2022/04/06 03:56:44;;;;;;;2.60;1.48;;;;;;;18.17;43.27;100084.97;5144302;27;20023;-60
2022/04/06 03:59:09;;;;;;;2.55;1.63;;;;;;;18.16;43.39;100076.09;5144838;27;20110;-61
2022/04/06 04:01:35;;;;;;;2.55;1.58;;;;;;;18.16;43.26;100075.25;5144182;27;20063;-61
2022/04/06 04:04:01;;;;;;;2.70;1.70;;;;;;;18.15;43.23;100071.72;5145302;27;20082;-60
2022/04/06 04:06:26;;;;;;;2.65;1.40;;;;;;;18.15;43.44;100078.97;5126087;27;20027;-61
2022/04/06 04:08:51;;;;;;;3.83;1.65;;;;;;;18.15;43.37;100089.72;5144585;27;20030;-60
2022/04/06 04:11:17;;;;;;;2.22;1.40;;;;;;;18.13;43.28;100076.44;5144212;27;20035;-60
2022/04/06 04:13:42;;;;;;;2.30;1.15;;;;;;;18.14;43.23;100077.31;5144695;27;20035;-61
2022/04/06 04:16:08;;;;;;;3.60;1.55;;;;;;;18.13;43.14;100086.38;5144096;27;20026;-60
2022/04/06 04:18:33;;;;;;;2.13;1.42;;;;;;;18.13;43.45;100073.75;5144612;27;20027;-61
2022/04/06 04:23:42;;;;;;;2.63;1.63;;;;;;;18.10;43.16;100063.38;5144216;27;20037;-61
2022/04/06 04:26:08;;;;;;;2.97;1.50;;;;;;;18.11;43.19;100062.34;5143716;27;20027;-60
2022/04/06 04:28:33;;;;;;;3.58;1.70;;;;;;;18.11;43.31;100066.91;5144487;27;20023;-60
2022/04/06 04:30:58;;;;;;;2.67;1.40;;;;;;;18.09;43.08;100069.75;5144256;28;20524;-60
2022/04/06 04:33:24;;;;;;;4.63;2.13;;;;;;;18.10;43.14;100066.06;5144557;28;20030;-61
2022/04/06 04:35:49;;;;;;;3.17;1.73;;;;;;;18.10;43.19;100066.06;5143878;28;20055;-60
2022/04/06 04:38:14;;;;;;;2.53;1.70;;;;;;;18.09;43.19;100064.38;5144277;28;20019;-61
2022/04/06 04:40:39;;;;;;;3.60;1.50;;;;;;;18.09;43.30;100064.38;5143877;28;20027;-61
2022/04/06 04:43:05;;;;;;;2.03;1.50;;;;;;;18.09;43.46;100068.91;5144533;28;20027;-61
2022/04/06 04:45:30;;;;;;;4.18;1.50;;;;;;;18.08;43.15;100078.03;5144455;28;20379;-61
2022/04/06 04:47:57;;;;;;;2.40;1.30;;;;;;;18.07;43.14;100063.75;5144323;28;20091;-61
2022/04/06 04:50:22;;;;;;;3.60;1.50;;;;;;;18.08;43.17;100064.56;5143771;27;20023;-61
2022/04/06 04:52:47;;;;;;;1.85;1.40;;;;;;;18.07;43.28;100058.34;5144062;28;20052;-61
2022/04/06 04:55:13;;;;;;;2.88;1.30;;;;;;;18.06;43.30;100067.47;5143889;28;20031;-61
2022/04/06 04:57:38;;;;;;;3.45;1.63;;;;;;;18.06;43.28;100058.56;5143627;28;20023;-61
2022/04/06 05:00:06;;;;;;;3.55;1.25;;;;;;;18.06;43.12;100058.56;5140428;28;20022;-61
2022/04/06 05:02:31;;;;;;;1.80;1.30;;;;;;;18.07;43.01;100054.84;5143160;28;20472;-61
2022/04/06 05:04:56;;;;;;;2.20;1.13;;;;;;;18.00;43.14;100043.97;5143145;28;20023;-62
2022/04/06 05:07:22;;;;;;;1.50;1.20;;;;;;;18.06;43.43;100045.09;5140863;27;20464;-61
2022/04/06 05:09:47;;;;;;;2.58;1.17;;;;;;;18.08;43.03;100048.44;5137645;28;20035;-60
2022/04/06 05:12:12;;;;;;;2.03;1.00;;;;;;;18.06;43.20;100035.19;5137233;28;20030;-60
2022/04/06 05:14:38;;;;;;;2.25;1.10;;;;;;;18.07;43.11;100038.69;5143744;28;20038;-61
2022/04/06 05:17:03;;;;;;;1.90;1.23;;;;;;;18.08;42.97;100041.19;5143142;28;20039;-61
2022/04/06 05:19:28;;;;;;;2.55;1.38;;;;;;;18.08;43.26;100040.34;5137869;28;20579;-60
2022/04/06 05:21:54;;;;;;;1.52;1.13;;;;;;;18.07;43.05;100039.53;5142817;28;20030;-60
2022/04/06 05:24:19;;;;;;;2.22;1.00;;;;;;;18.07;43.18;100034.16;5138051;28;20039;-61
2022/04/06 05:26:44;;;;;;;2.47;1.02;;;;;;;18.07;43.16;100036.84;5143080;28;20465;-61
2022/04/06 05:29:09;;;;;;;1.42;1.10;;;;;;;18.07;43.00;100020.69;5143564;28;20027;-60
2022/04/06 05:31:36;;;;;;;1.85;1.20;;;;;;;18.07;43.13;100031.47;5142932;28;20031;-61
2022/04/06 05:34:01;;;;;;;2.10;1.00;;;;;;;18.05;43.13;100019.19;5143620;28;20015;-61
2022/04/06 05:36:28;;;;;;;1.40;1.00;;;;;;;18.08;43.22;100034.97;5142878;28;20396;-61
2022/04/06 05:38:54;;;;;;;2.08;1.15;;;;;;;18.08;43.04;100043.88;5145923;27;20077;-61
2022/04/06 05:41:19;;;;;;;1.45;0.95;;;;;;;18.08;43.01;100034.97;5146447;27;20471;-61
2022/04/06 05:43:45;;;;;;;0.93;0.90;;;;;;;18.05;43.02;100035.34;5143945;27;20015;-60
2022/04/06 05:46:10;;;;;;;1.13;0.95;;;;;;;18.08;43.30;100038.50;5146206;27;20047;-60
2022/04/06 05:48:36;;;;;;;1.98;0.95;;;;;;;18.08;43.26;100041.19;5144179;27;20027;-61
2022/04/06 05:51:01;;;;;;;2.28;1.00;;;;;;;18.09;43.43;100036.63;5143887;27;20027;-61
2022/04/06 05:53:26;;;;;;;1.67;0.90;;;;;;;18.09;43.30;100029.41;5140935;27;20087;-60
2022/04/06 05:55:52;;;;;;;1.55;0.90;;;;;;;18.04;43.46;100021.06;5143650;27;20027;-60
2022/04/06 05:58:17;;;;;;;1.45;0.90;;;;;;;18.09;43.40;100021.34;5146521;27;20011;-61
2022/04/06 06:00:42;;;;;;;2.20;1.05;;;;;;;18.09;43.16;100024.03;5140792;27;20027;-60
2022/04/06 06:03:07;;;;;;;1.30;0.90;;;;;;;18.08;43.32;100019.66;5145482;27;20040;-61
2022/04/06 06:05:33;;;;;;;1.75;1.10;;;;;;;18.09;43.41;100015.13;5138521;27;20468;-61
2022/04/06 06:07:58;;;;;;;1.13;0.77;;;;;;;18.09;43.56;100017.81;5140080;27;20019;-60
2022/04/06 06:10:23;;;;;;;1.73;0.90;;;;;;;18.09;43.52;100015.13;5145060;27;20628;-60
2022/04/06 06:12:48;;;;;;;1.55;0.90;;;;;;;18.10;43.47;100014.13;5126866;27;20027;-59
2022/04/06 06:15:14;;;;;;;1.00;0.90;;;;;;;18.09;43.29;99998.97;5144801;27;20031;-61
2022/04/06 06:17:40;;;;;;;2.33;1.13;;;;;;;18.10;43.39;100019.50;5136601;27;20023;-60
2022/04/06 06:20:06;;;;;;;1.60;0.93;;;;;;;18.10;43.35;100014.97;5110904;27;20024;-59
2022/04/06 06:22:31;;;;;;;1.08;0.90;;;;;;;18.10;43.33;100011.44;5146784;27;20091;-60
2022/04/06 06:24:56;;;;;;;1.83;0.90;;;;;;;18.06;43.42;100010.13;5146673;27;20113;-60
2022/04/06 06:27:23;;;;;;;1.88;1.05;;;;;;;18.11;43.42;100015.78;5145739;27;20062;-60
2022/04/06 06:29:49;;;;;;;1.40;1.00;;;;;;;18.11;43.44;100024.69;5127635;27;20031;-60
2022/04/06 06:32:14;;;;;;;1.50;1.00;;;;;;;18.11;43.50;100026.56;5140037;27;20026;-60
2022/04/06 06:34:39;;;;;;;1.08;0.93;;;;;;;18.11;43.71;100021.16;5144301;27;20027;-60
2022/04/06 06:37:05;;;;;;;1.60;0.95;;;;;;;18.11;43.63;100031.94;5141560;27;20055;-59
2022/04/06 06:39:31;;;;;;;3.38;1.13;;;;;;;18.10;43.79;100031.09;5142555;27;20070;-60
2022/04/06 06:41:56;;;;;;;1.20;1.10;;;;;;;18.09;43.49;100024.03;5140819;27;20023;-60
2022/04/06 06:44:21;;;;;;;1.98;0.93;;;;;;;18.10;43.70;100033.78;5125421;28;20484;-60
2022/04/06 06:46:47;;;;;;;1.52;0.80;;;;;;;18.11;43.11;100022.00;5144399;27;20058;-59
2022/04/06 06:49:14;;;;;;;1.75;0.80;;;;;;;18.09;43.65;100015.13;5143619;27;20038;-59
2022/04/06 06:51:39;;;;;;;1.02;0.80;;;;;;;18.11;43.80;100021.16;5145683;27;20054;-59
2022/04/06 06:54:05;;;;;;;2.05;1.00;;;;;;;18.12;43.60;100020.13;5146090;27;20031;-60
2022/04/06 06:56:30;;;;;;;1.05;0.80;;;;;;;18.11;43.47;100013.09;5145555;27;20046;-60
2022/04/06 06:58:55;;;;;;;1.27;1.00;;;;;;;18.10;43.52;100006.06;5145416;27;20027;-59
2022/04/06 07:01:21;;;;;;;1.48;0.73;;;;;;;18.10;43.72;100012.25;5145481;27;20053;-59
2022/04/06 07:03:47;;;;;;;1.75;0.98;;;;;;;18.10;43.67;100014.13;5145449;27;20023;-59
2022/04/06 07:06:13;;;;;;;2.35;0.90;;;;;;;18.09;43.47;100017.81;5145669;27;20078;-59
2022/04/06 07:08:38;;;;;;;1.15;0.90;;;;;;;18.09;43.54;100017.81;5145528;27;20037;-60
2022/04/06 07:11:04;;;;;;;1.27;1.00;;;;;;;18.09;43.48;100001.66;5145207;27;20027;-59
2022/04/06 07:13:29;;;;;;;0.90;0.85;;;;;;;18.09;43.60;100001.66;5145630;27;20023;-59
2022/04/06 07:15:54;;;;;;;1.38;1.00;;;;;;;18.07;43.67;100001.88;5145587;27;20027;-58
2022/04/06 07:18:21;;;;;;;1.02;0.90;;;;;;;18.09;43.72;99999.81;5145733;27;20037;-60
2022/04/06 07:20:47;;;;;;;2.67;1.30;;;;;;;18.06;43.53;99997.50;5145400;27;20041;-59
2022/04/06 07:23:12;;;;;;;1.30;0.80;;;;;;;18.10;43.40;99998.81;5145560;27;20035;-60
2022/04/06 07:25:39;;;;;;;1.85;1.00;;;;;;;18.10;43.54;99998.81;5144807;27;20035;-59
2022/04/06 07:28:05;;;;;;;1.70;0.98;;;;;;;18.12;43.59;99995.94;5145606;27;20038;-60
2022/04/06 07:30:30;;;;;;;1.48;1.10;;;;;;;18.12;43.39;99991.38;5126738;27;20023;-59
2022/04/06 07:32:58;;;;;;;1.30;0.93;;;;;;;18.14;43.39;99988.53;5144792;27;20500;-59
2022/04/06 07:35:23;;;;;;;1.08;0.90;;;;;;;18.12;43.46;99987.84;5144910;27;20108;-60
2022/04/06 07:37:49;;;;;;;1.33;0.85;;;;;;;18.15;43.46;99980.25;5145264;27;20035;-59
2022/04/06 07:40:16;;;;;;;1.73;0.90;;;;;;;18.18;43.51;99981.72;5144574;27;20020;-59
2022/04/06 07:42:42;;;;;;;1.67;0.90;;;;;;;18.19;43.37;99976.19;5145059;27;20027;-59
2022/04/06 07:45:09;;;;;;;0.77;0.77;;;;;;;18.21;43.32;99974.13;5145005;27;20030;-59
2022/04/06 07:47:36;;;;;;;1.58;0.85;;;;;;;18.22;43.33;99975.81;5144926;27;20031;-59
2022/04/06 07:50:03;;;;;;;1.33;0.90;;;;;;;18.23;43.38;99966.72;5144947;27;20027;-59
2022/04/06 07:52:28;;;;;;;1.00;0.80;;;;;;;18.25;43.07;99969.19;5144951;27;20043;-60
2022/04/06 07:54:54;;;;;;;3.10;1.42;;;;;;;18.28;42.97;99966.16;5144844;27;20030;-59
2022/04/06 07:57:20;;;;;;;1.55;0.88;;;;;;;18.29;43.25;99973.19;5144047;27;20031;-59
2022/04/06 07:59:46;;;;;;;1.45;0.90;;;;;;;18.29;43.06;99962.44;5144463;27;20467;-59
2022/04/06 08:02:11;;;;;;;1.40;1.08;;;;;;;18.33;43.03;99973.66;5144192;27;20030;-60
2022/04/06 08:04:36;;;;;;;1.77;1.00;;;;;;;18.34;42.90;99967.25;5144836;27;20056;-60
2022/04/06 08:07:01;;;;;;;1.83;0.93;;;;;;;18.36;42.81;99968.75;5144515;27;20038;-60
2022/04/06 08:09:27;;;;;;;1.60;0.90;;;;;;;18.39;42.87;99972.88;5126003;27;20023;-60
2022/04/06 08:11:52;;;;;;;1.40;0.98;;;;;;;18.36;42.95;99963.34;5144167;27;20096;-59
2022/04/06 08:14:17;;;;;;;1.50;1.00;;;;;;;18.40;42.85;99969.19;5144719;27;20019;-59
2022/04/06 08:16:42;;;;;;;0.80;0.75;;;;;;;18.43;42.61;99977.72;5144169;27;20035;-60
2022/04/06 08:19:08;;;;;;;1.15;0.95;;;;;;;18.45;42.67;99974.84;5144552;27;20031;-60
2022/04/06 08:21:33;;;;;;;1.45;1.00;;;;;;;18.47;42.50;99970.09;5144296;27;20042;-60
2022/04/06 08:23:58;;;;;;;1.17;0.95;;;;;;;18.47;42.56;99973.63;5144503;27;20023;-60
2022/04/06 08:26:24;;;;;;;2.03;1.10;;;;;;;18.50;42.67;99972.41;5143898;27;20052;-60
2022/04/06 08:28:49;;;;;;;2.10;1.00;;;;;;;18.51;42.58;99975.94;5144083;27;20030;-60
2022/04/06 08:31:15;;;;;;;2.13;0.77;;;;;;;18.54;42.40;99975.56;5144028;27;20046;-59
2022/04/06 08:33:40;;;;;;;1.52;0.90;;;;;;;18.47;42.41;99962.03;5144494;28;20023;-60
2022/04/06 08:36:06;;;;;;;0.98;0.70;;;;;;;18.57;42.62;99970.66;5143948;28;20051;-60
2022/04/06 08:38:31;;;;;;;2.33;0.90;;;;;;;18.58;42.32;99968.78;5144111;28;20027;-59
2022/04/06 08:40:57;;;;;;;1.55;1.20;;;;;;;18.55;42.25;99958.38;5143853;28;20122;-60
2022/04/06 08:43:23;;;;;;;1.77;0.95;;;;;;;18.62;42.22;99968.22;5125705;28;20031;-60
2022/04/06 08:45:50;;;;;;;1.08;0.80;;;;;;;18.63;42.45;99966.34;5144267;28;20051;-60
2022/04/06 08:48:16;;;;;;;1.10;0.70;;;;;;;18.63;42.39;99959.13;5144051;27;20023;-60
2022/04/06 08:50:43;;;;;;;1.33;0.90;;;;;;;18.67;42.36;99959.56;5144055;27;20026;-60
2022/04/06 08:53:08;;;;;;;0.93;0.82;;;;;;;18.69;42.03;99961.09;5144359;27;20034;-60
2022/04/06 08:55:34;;;;;;;1.05;0.73;;;;;;;18.70;42.17;99960.06;5143438;27;20027;-61
2022/04/06 08:58:01;;;;;;;1.05;0.90;;;;;;;18.72;42.10;99963.38;5144160;28;20023;-61
2022/04/06 09:00:26;;;;;;;2.72;1.17;;;;;;;18.73;41.90;99959.69;5143658;28;20027;-60
2022/04/06 09:02:52;;;;;;;0.95;0.70;;;;;;;18.76;41.99;99954.94;5143856;28;20037;-61
2022/04/06 09:05:21;;;;;;;2.70;1.13;;;;;;;18.79;41.80;99957.25;5125586;28;20030;-61
2022/04/06 09:07:46;;;;;;;;;;;;;;;18.77;42.00;99961.97;5144642;28;20023;-61
2022/04/06 09:10:14;;;;;;;2.95;1.35;;;;;;;18.78;41.91;99955.59;5143395;28;19973;-58
2022/04/06 09:12:39;;;;;;;2.03;0.98;;;;;;;18.80;41.60;99964.31;5145206;27;20027;-61
2022/04/06 09:15:09;;;;;;;1.20;0.82;;;;;;;18.81;41.85;99963.28;5148078;27;20400;-61
2022/04/06 09:17:45;;;;;;;0.80;0.80;;;;;;;18.84;41.82;99962.91;5147989;27;20031;-61
2022/04/06 09:20:11;;;;;;;2.55;1.05;;;;;;;18.83;41.70;99956.69;5147670;27;20059;-60
2022/04/06 09:22:37;;;;;;;2.53;0.90;;;;;;;18.86;41.66;99955.44;5147727;27;20027;-60
2022/04/06 09:25:05;;;;;;;1.90;1.00;;;;;;;18.88;41.68;99954.25;5147746;27;20027;-60
2022/04/06 09:27:31;;;;;;;2.55;0.90;;;;;;;18.88;41.77;99942.63;5126007;27;20075;-60
2022/04/06 09:29:57;;;;;;;2.33;0.70;;;;;;;18.91;41.46;99953.88;5147680;27;20049;-61
2022/04/06 09:32:22;;;;;;;1.63;0.90;;;;;;;18.93;41.13;99949.09;5146871;27;20026;-61
2022/04/06 09:34:47;;;;;;;1.48;0.70;;;;;;;18.94;41.48;99953.47;5147444;27;20080;-60
2022/04/06 09:37:27;;;;;;;1.20;0.80;;;;;;;18.97;41.62;99957.63;5106599;28;20044;-60
2022/04/06 09:39:53;;;;;;;1.25;0.90;;;;;;;18.97;41.55;99953.09;5112118;28;20024;-61
2022/04/06 09:42:24;;;;;;;1.67;0.82;;;;;;;19.00;41.43;99951.03;5106241;28;20028;-61
2022/04/06 09:47:41;;;;;;;2.28;1.75;;;;;;;19.03;41.41;99943.41;5111440;28;20503;-61
2022/04/06 09:50:16;;;;;;;1.77;0.90;;;;;;;19.05;41.67;99940.53;5115187;28;20024;-60
2022/04/06 09:52:43;;;;;;;1.55;0.88;;;;;;;19.07;41.57;99951.91;5104984;28;20079;-61
2022/04/06 09:55:10;;;;;;;1.52;1.10;;;;;;;19.09;41.43;99952.59;5086965;28;20047;-59
2022/04/06 09:57:51;;;;;;;1.02;0.80;;;;;;;19.13;41.63;99945.78;5126545;27;20031;-61
2022/04/06 10:00:22;;;;;;;1.10;0.80;;;;;;;19.13;41.78;99940.38;5108191;28;20027;-60
2022/04/06 10:02:54;;;;;;;2.40;0.80;;;;;;;19.16;41.50;99942.72;5105796;28;20034;-61
2022/04/06 10:05:20;;;;;;;1.38;0.93;;;;;;;19.18;41.68;99940.63;5105572;28;20036;-60
2022/04/06 10:07:46;;;;;;;1.10;0.70;;;;;;;19.20;41.59;99935.91;5104664;28;20032;-60
2022/04/06 10:10:12;;;;;;;1.08;0.90;;;;;;;19.22;41.37;99936.53;5111455;28;20041;-58
2022/04/06 10:12:38;;;;;;;2.17;1.40;;;;;;;19.24;41.46;99939.84;5113459;28;20020;-60
2022/04/06 10:15:05;;;;;;;1.20;0.82;;;;;;;19.23;41.69;99925.53;5109337;28;20078;-60
2022/04/06 10:17:31;;;;;;;1.63;0.80;;;;;;;19.28;41.40;99940.28;5105335;28;20019;-60
2022/04/06 10:20:31;;;;;;;1.58;0.90;;;;;;;19.31;41.51;99929.97;5108761;28;20016;-60
2022/04/06 10:23:21;;;;;;;1.13;0.82;;;;;;;19.33;41.51;99937.88;5076101;28;20060;-60
2022/04/06 10:26:01;;;;;;;0.98;0.80;;;;;;;19.34;41.73;99928.75;5099767;28;20032;-59
2022/04/06 10:28:31;;;;;;;2.15;0.90;;;;;;;19.35;41.64;99920.47;5107530;28;20035;-58
2022/04/06 10:31:11;;;;;;;0.98;0.70;;;;;;;19.37;41.68;99921.13;5099792;28;20084;-61
2022/04/06 10:33:37;;;;;;;2.05;0.80;;;;;;;19.38;41.65;99913.84;5090305;28;20063;-60
2022/04/06 10:36:19;;;;;;;1.55;0.98;;;;;;;19.41;41.96;99918.84;5114000;27;20055;-61
2022/04/06 10:39:05;;;;;;;2.40;0.90;;;;;;;19.42;41.63;99921.34;5145197;27;20061;-59
2022/04/06 10:41:34;;;;;;;1.83;0.95;;;;;;;19.43;41.79;99922.19;5145870;27;20030;-60
2022/04/06 10:44:00;;;;;;;2.17;1.00;;;;;;;19.45;41.84;99915.59;5146386;27;20467;-61
2022/04/06 10:46:35;;;;;;;1.48;0.65;;;;;;;19.48;41.88;99914.34;5144881;27;20060;-60
2022/04/06 10:49:06;;;;;;;1.88;1.05;;;;;;;19.50;41.83;99912.28;5131288;27;20037;-61
2022/04/06 10:51:34;;;;;;;1.55;1.05;;;;;;;19.48;41.77;99904.38;5139781;27;20050;-61
2022/04/06 10:54:19;;;;;;;1.67;1.25;;;;;;;19.52;41.82;99902.13;5142660;27;20488;-61
2022/04/06 10:56:54;;;;;;;1.48;0.93;;;;;;;19.53;41.59;99903.78;5126505;27;20035;-61
2022/04/06 10:59:21;;;;;;;2.65;1.10;;;;;;;19.54;41.68;99901.94;5139012;27;20023;-61
2022/04/06 11:01:48;;;;;;;1.38;0.80;;;;;;;19.55;41.81;99890.97;5144566;27;20027;-61
2022/04/06 11:04:21;;;;;;;2.90;1.10;;;;;;;19.58;41.47;99890.56;5127491;27;20111;-61
2022/04/06 11:06:55;;;;;;;1.30;0.90;;;;;;;19.56;41.68;99883.69;5145408;27;20423;-61
2022/04/06 11:12:25;;;;;;;1.77;0.90;;;;;;;19.64;41.46;99888.97;5142749;27;20060;-60
2022/04/06 11:15:10;;;;;;;1.83;1.10;;;;;;;19.65;41.29;99877.16;5145457;27;20045;-60
2022/04/06 11:17:41;;;;;;;3.42;1.00;;;;;;;19.64;41.53;99879.00;5145311;27;20053;-61
2022/04/06 11:20:19;;;;;;;2.60;0.90;;;;;;;19.67;41.58;99873.22;5145258;27;20090;-60
2022/04/06 11:22:53;;;;;;;1.33;1.02;;;;;;;19.69;41.43;99878.41;5145386;27;20055;-61
2022/04/06 11:25:22;;;;;;;1.55;0.93;;;;;;;19.70;41.21;99874.69;5144973;27;20018;-61
2022/04/06 11:27:48;;;;;;;2.70;1.08;;;;;;;19.72;41.52;99875.34;5145327;27;20583;-61
2022/04/06 11:30:16;;;;;;;2.20;0.82;;;;;;;19.65;41.23;99864.50;5145399;27;20042;-61
2022/04/06 11:32:47;;;;;;;1.48;0.80;;;;;;;19.75;41.63;99877.59;5144901;27;20027;-61
2022/04/06 11:35:15;;;;;;;1.10;0.85;;;;;;;19.71;41.10;99863.72;5125810;27;20027;-61
2022/04/06 11:37:41;;;;;;;1.15;0.75;;;;;;;19.79;41.42;99868.09;5145222;27;20102;-62
2022/04/06 11:40:08;;;;;;;1.30;0.90;;;;;;;19.78;41.43;99869.13;5144824;27;20114;-60